Latest Weather Observations for Warburton

IDD60801

Issued at 9:41 pm CST Tuesday 4 August 2020 (issued every 10 minutes, with the page automatically refreshed every 10 minutes)

About weather observations | Map of weather stations | Latest weather observations for NT | Other Formats
Station Details ID: 013011 Name: WARBURTON AIRFIELD Lat: -26.13 Lon: 126.58 Height: 459.0 m
Data from the previous 72 hours. | See also: Recent months at Warburton
Date/Time
CST
Temp
°C
App
Temp
°C
Dew
Point
°C
Rel
Hum
%
Delta-T
°C
Wind Press
QNH
hPa
Press
MSL
hPa
Rain since
9am
mm
Dir  Spd
km/h
Gust
km/h
Spd
kts
Gust
kts
04/09:30pm 19.2 13.8 1.2 30 8.3 WSW 19 28 10 15 1010.3 1009.4 0.0
04/09:00pm 18.8 14.9 0.9 30 8.2 W 11 15 6 8 1010.0 1009.1 0.0
04/08:30pm 19.4 15.1 0.9 29 8.5 W 13 17 7 9 1009.5 1008.7 0.0
04/08:00pm 20.4 16.1 0.8 27 9.0 W 13 19 7 10 1009.0 1008.2 0.0
04/07:30pm 21.0 16.7 0.8 26 9.4 W 13 17 7 9 1008.8 1008.0 0.0
04/07:00pm 21.9 17.2 1.0 25 9.8 W 15 20 8 11 1008.4 1007.5 0.0
04/06:30pm 22.7 16.3 1.1 24 10.2 W 24 33 13 18 1008.1 1007.2 0.0
04/06:00pm 23.9 17.1 0.9 22 10.9 W 26 35 14 19 1007.8 1006.9 0.0
04/05:30pm 24.2 17.8 1.2 22 11.0 WNW 24 30 13 16 1007.6 1006.7 0.0
04/05:00pm 24.4 16.3 1.3 22 11.1 NW 33 44 18 24 1007.6 1006.7 0.0
04/04:37pm 24.8 16.7 1.0 21 11.4 NW 33 52 18 28 1007.6 1006.7 0.0
04/04:30pm 25.4 17.6 1.5 21 11.6 NW 32 43 17 23 1007.6 1006.7 0.0
04/04:00pm 25.7 17.2 1.1 20 11.9 WNW 35 50 19 27 1007.2 1006.4 0.0
04/03:30pm 26.0 17.2 1.3 20 12.0 NW 37 54 20 29 1007.0 1006.2 0.0
04/03:27pm 26.1 18.0 0.7 19 12.2 NW 33 54 18 29 1007.0 1006.2 0.0
04/03:00pm 26.4 19.2 0.9 19 12.3 NW 28 39 15 21 1007.2 1006.4 0.0
04/02:30pm 25.5 18.1 1.6 21 11.7 NW 30 41 16 22 1007.5 1006.6 0.0
04/02:00pm 25.4 18.5 0.1 19 12.0 NW 26 39 14 21 1007.8 1006.9 0.0
04/01:30pm 24.7 18.3 -2.0 17 12.1 NW 22 32 12 17 1008.2 1007.3 0.0
04/01:00pm 24.2 17.7 -2.4 17 11.9 NW 22 30 12 16 1008.8 1008.0 0.0
04/12:30pm 23.3 17.2 -3.9 16 11.8 NW 19 26 10 14 1009.5 1008.7 0.0
04/12:00pm 22.4 16.7 -3.8 17 11.2 NW 17 26 9 14 1010.0 1009.1 0.0
04/11:30am 21.8 16.5 -3.5 18 10.9 WNW 15 24 8 13 1010.3 1009.4 0.0
04/11:00am 20.8 15.5 -3.6 19 10.4 NW 15 22 8 12 1010.4 1009.5 0.0
04/10:30am 19.8 14.1 -3.8 20 9.9 NW 17 24 9 13 1010.4 1009.5 0.0
04/10:00am 19.0 12.9 -3.8 21 9.5 NW 19 24 10 13 1010.2 1009.3 0.0
04/09:30am 18.9 12.9 -3.3 22 9.3 NNW 19 24 10 13 1010.0 1009.1 0.0
04/09:00am 18.5 12.8 -3.6 22 9.2 NNW 17 24 9 13 1009.5 1008.7 0.0
04/08:30am 17.8 12.5 -3.6 23 8.9 NNW 15 20 8 11 1009.4 1008.6 0.0
04/08:00am 17.5 12.2 -3.3 24 8.6 N 15 19 8 10 1009.1 1008.3 0.0
04/07:30am 17.9 11.8 -3.5 23 8.9 N 19 26 10 14 1008.8 1008.0 0.0
04/07:00am 18.3 12.6 -3.8 22 9.1 N 17 20 9 11 1008.7 1007.9 0.0
04/06:30am 18.4 12.3 -4.3 21 9.3 N 19 24 10 13 1008.2 1007.3 0.0
04/06:00am 18.6 11.9 -4.1 21 9.3 N 22 28 12 15 1007.8 1006.9 0.0
04/05:30am 18.9 12.5 -4.5 20 9.6 N 20 28 11 15 1007.8 1006.9 0.0
04/05:00am 19.6 13.4 -4.6 19 10.0 N 19 30 10 16 1007.7 1006.8 0.0
04/04:30am 19.9 13.5 -5.1 18 10.2 N 20 28 11 15 1007.7 1006.8 0.0
04/04:00am 19.9 13.7 -5.1 18 10.2 N 19 24 10 13 1007.9 1007.0 0.0
04/03:30am 20.1 13.9 -4.9 18 10.3 N 19 24 10 13 1008.0 1007.1 0.0
04/03:00am 20.2 14.3 -5.6 17 10.5 N 17 24 9 13 1008.4 1007.5 0.0
04/02:30am 20.9 14.7 -5.0 17 10.7 N 19 24 10 13 1008.7 1007.9 0.0
04/02:00am 21.3 15.4 -5.5 16 11.0 N 17 22 9 12 1009.0 1008.2 0.0
04/01:30am 21.4 15.9 -5.4 16 11.1 N 15 20 8 11 1009.3 1008.5 0.0
04/01:00am 21.0 15.8 -5.7 16 10.9 NNE 13 17 7 9 1009.5 1008.7 0.0
04/12:30am 20.9 15.4 -5.8 16 10.9 NNE 15 19 8 10 1010.0 1009.1 0.0
04/12:00am 20.6 15.4 -6.1 16 10.8 NNE 13 20 7 11 1010.1 1009.2 0.0
 
Date/Time
CST
Temp
°C
App
Temp
°C
Dew
Point
°C
Rel
Hum
%
Delta-T
°C
Wind Press
QNH
hPa
Press
MSL
hPa
Rain since
9am
mm
Dir  Spd
km/h
Gust
km/h
Spd
kts
Gust
kts
03/11:30pm 20.3 15.2 -5.5 17 10.5 NNE 13 15 7 8 1010.3 1009.4 0.0
03/11:00pm 20.5 15.3 -6.1 16 10.7 NNE 13 15 7 8 1010.4 1009.5 0.0
03/10:30pm 20.1 15.3 -6.5 16 10.6 NNE 11 15 6 8 1010.3 1009.4 0.0
03/10:00pm 20.1 15.3 -6.5 16 10.6 NNE 11 15 6 8 1010.3 1009.4 0.0
03/09:30pm 20.9 15.7 -6.7 15 11.0 NNE 13 17 7 9 1010.4 1009.5 0.0
03/09:00pm 20.6 15.7 -6.9 15 10.9 NNE 11 13 6 7 1010.2 1009.3 0.0
03/08:30pm 21.3 16.0 -7.2 14 11.3 NNE 13 15 7 8 1010.0 1009.1 0.0
03/08:00pm 21.8 16.8 -7.8 13 11.7 NNE 11 13 6 7 1009.9 1009.0 0.0
03/07:30pm 23.8 18.9 -7.3 12 12.7 N 11 13 6 7 1009.6 1008.8 0.0
03/07:00pm 25.6 19.8 -8.2 10 13.7 NNW 15 20 8 11 1009.5 1008.7 0.0
03/06:30pm 27.2 20.1 -8.4 9 14.7 NNW 22 32 12 17 1009.3 1008.5 0.0
03/06:00pm 28.1 20.3 -7.7 9 15.0 NNW 26 33 14 18 1009.3 1008.5 0.0
03/05:30pm 28.7 21.7 -7.3 9 15.3 NNW 22 32 12 17 1009.3 1008.5 0.0
03/05:00pm 29.1 21.2 -8.5 8 15.7 NNW 26 41 14 22 1009.4 1008.6 0.0
03/04:30pm 28.7 20.4 -8.8 8 15.6 NNW 28 43 15 23 1009.5 1008.7 0.0
03/04:00pm 28.8 20.7 -7.2 9 15.4 NNW 28 41 15 22 1009.9 1009.0 0.0
03/03:30pm 29.1 21.2 -8.5 8 15.7 NNW 26 43 14 23 1010.1 1009.2 0.0
03/03:00pm 29.1 20.5 -8.5 8 15.7 NNW 30 44 16 24 1010.5 1009.7 0.0
03/02:30pm 28.4 19.7 -9.0 8 15.4 N 30 41 16 22 1010.8 1010.0 0.0
03/02:13pm 28.5 20.2 -8.9 8 15.4 N 28 46 15 25 1011.1 1010.3 0.0
03/02:00pm 28.7 20.0 -8.8 8 15.5 NNW 30 41 16 22 1011.4 1010.6 0.0
03/01:30pm 28.1 18.9 -10.9 7 15.5 N 32 50 17 27 1012.0 1011.2 0.0
03/01:24pm 27.7 19.4 -9.5 8 15.1 N 28 50 15 27 1012.2 1011.3 0.0
03/01:00pm 26.9 17.6 -10.1 8 14.7 N 33 43 18 23 1012.7 1011.9 0.0
03/12:30pm 26.4 17.2 -10.5 8 14.5 N 32 43 17 23 1013.3 1012.5 0.0
03/12:00pm 25.7 16.5 -11.0 8 14.2 N 32 44 17 24 1013.7 1012.9 0.0
03/11:30am 25.4 15.7 -9.7 9 13.9 N 35 46 19 25 1014.0 1013.2 0.0
03/11:00am 24.5 15.7 -10.4 9 13.5 N 30 41 16 22 1014.3 1013.6 0.0
03/10:30am 23.6 14.4 -11.1 9 13.1 N 32 44 17 24 1014.3 1013.6 0.0
03/10:17am 23.2 14.7 -11.4 9 12.9 N 28 46 15 25 1014.3 1013.6 0.0
03/10:00am 22.1 15.4 -10.9 10 12.3 N 19 32 10 17 1014.5 1013.7 0.0
03/09:30am 19.9 13.2 -10.3 12 11.1 N 19 24 10 13 1014.3 1013.6 0.0
03/09:00am 17.4 11.2 -9.5 15 9.8 NNE 17 24 9 13 1014.2 1013.5 0.0
03/08:30am 16.1 9.5 -9.7 16 9.2 NNE 19 24 10 13 1014.1 1013.3 0.0
03/08:00am 14.9 8.6 -9.9 17 8.7 NNE 17 20 9 11 1013.8 1013.0 0.0
03/07:30am 14.2 8.3 -9.7 18 8.3 NNE 15 20 8 11 1013.6 1012.8 0.0
03/07:00am 13.8 7.9 -9.4 19 8.1 NNE 15 19 8 10 1013.5 1012.7 0.0
03/06:30am 13.4 7.9 -9.7 19 8.0 NNE 13 17 7 9 1013.4 1012.6 0.0
03/06:00am 13.7 8.2 -9.5 19 8.1 NNE 13 15 7 8 1013.5 1012.7 0.0
03/05:30am 14.3 8.4 -9.7 18 8.4 NNE 15 17 8 9 1013.4 1012.6 0.0
03/05:00am 14.9 9.4 -9.9 17 8.7 NNE 13 19 7 10 1013.3 1012.5 0.0
03/04:30am 14.7 9.2 -10.1 17 8.6 NNE 13 17 7 9 1013.4 1012.6 0.0
03/04:00am 14.6 9.0 -10.9 16 8.7 NNE 13 15 7 8 1013.6 1012.8 0.0
03/03:30am 14.3 9.1 -11.1 16 8.6 NNE 11 13 6 7 1013.7 1012.9 0.0
03/03:00am 13.9 9.0 -11.5 16 8.5 NE 9 11 5 6 1014.0 1013.2 0.0
03/02:30am 14.7 9.1 -11.6 15 8.8 NNE 13 15 7 8 1014.3 1013.6 0.0
03/02:00am 15.1 9.9 -11.3 15 9.0 NE 11 13 6 7 1014.6 1013.8 0.0
03/01:30am 15.7 10.1 -11.7 14 9.3 NE 13 17 7 9 1014.8 1014.0 0.0
03/01:00am 15.4 10.2 -11.1 15 9.1 NE 11 13 6 7 1014.9 1014.1 0.0
03/12:30am 12.5 7.3 -11.1 18 7.8 NE 11 11 6 6 1015.2 1014.4 0.0
03/12:00am 12.3 7.5 -10.6 19 7.6 NNE 9 11 5 6 1015.3 1014.5 0.0
 
Date/Time
CST
Temp
°C
App
Temp
°C
Dew
Point
°C
Rel
Hum
%
Delta-T
°C
Wind Press
QNH
hPa
Press
MSL
hPa
Rain since
9am
mm
Dir  Spd
km/h
Gust
km/h
Spd
kts
Gust
kts
02/11:30pm 10.9 7.8 -11.1 20 7.1 CALM 0 4 0 2 1015.4 1014.6 0.0
02/11:00pm 11.3 8.1 -12.1 18 7.4 CALM 0 0 0 0 1015.4 1014.6 0.0
02/10:30pm 11.9 7.6 -11.6 18 7.6 ENE 6 6 3 3 1015.5 1014.7 0.0
02/10:00pm 13.6 9.3 -11.7 16 8.4 E 6 7 3 4 1015.5 1014.7 0.0
02/09:30pm 14.0 9.7 -12.2 15 8.6 E 6 9 3 5 1015.4 1014.6 0.0
02/09:00pm 15.8 11.3 -11.6 14 9.3 ENE 7 9 4 5 1015.5 1014.7 0.0
02/08:30pm 16.9 13.3 -11.7 13 9.9 NE 2 9 1 5 1015.4 1014.6 0.0
02/08:00pm 18.7 15.2 -11.2 12 10.7 NNE 2 6 1 3 1015.4 1014.6 0.0
02/07:30pm 19.7 16.1 -12.7 10 11.3 N 2 9 1 5 1015.2 1014.4 0.0
02/07:00pm 22.8 18.5 -11.7 9 12.8 NW 6 7 3 4 1015.2 1014.4 0.0
02/06:30pm 24.6 20.7 -11.8 8 13.7 WNW 4 6 2 3 1015.2 1014.4 0.0
02/06:00pm 25.9 21.3 -12.5 7 14.5 NW 7 13 4 7 1015.1 1014.3 0.0
02/05:30pm 26.9 21.6 -11.8 7 14.9 NNW 11 15 6 8 1015.1 1014.3 0.0
02/05:00pm 27.0 22.1 -11.7 7 15.0 NNW 9 15 5 8 1015.3 1014.5 0.0
02/04:30pm 26.5 21.6 -12.1 7 14.7 NNW 9 15 5 8 1015.3 1014.5 0.0
02/04:00pm 27.1 20.7 -11.6 7 15.0 NNW 17 26 9 14 1015.4 1014.6 0.0
02/03:30pm 26.9 21.6 -11.8 7 14.9 NNW 11 20 6 11 1015.6 1014.8 0.0
02/03:00pm 26.9 20.9 -11.8 7 14.9 N 15 26 8 14 1015.9 1015.1 0.0
02/02:30pm 27.3 20.9 -11.5 7 15.1 N 17 26 9 14 1016.2 1015.5 0.0
02/02:00pm 26.8 20.8 -11.8 7 14.9 NNW 15 26 8 14 1016.6 1015.9 0.0
02/01:30pm 25.8 19.3 -12.6 7 14.4 N 17 28 9 15 1017.3 1016.5 0.0
02/01:00pm 26.1 19.4 -10.7 8 14.4 N 19 30 10 16 1017.9 1017.1 0.0
02/12:30pm 25.1 19.1 -11.4 8 13.9 N 15 22 8 12 1018.5 1017.8 0.0
02/12:00pm 24.4 18.0 -11.9 8 13.6 N 17 24 9 13 1018.9 1018.2 0.0
02/11:30am 23.5 17.5 -11.2 9 13.0 NNE 15 20 8 11 1019.3 1018.5 0.0
02/11:00am 22.4 16.2 -9.5 11 12.3 NNE 17 24 9 13 1019.6 1018.8 0.0
02/10:30am 20.9 15.8 -9.5 12 11.5 NNE 11 17 6 9 1019.8 1019.0 0.0
02/10:00am 19.3 14.6 -8.8 14 10.6 NNE 9 15 5 8 1019.9 1019.2 0.0
02/09:30am 16.6 13.9 -5.8 21 8.7 CALM 0 0 0 0 1019.8 1019.0 0.0
02/09:00am 13.2 10.2 -5.4 27 7.0 ESE 2 7 1 4 1019.7 1018.9 0.0
02/08:30am 9.6 5.7 -5.1 35 5.3 SE 7 7 4 4 1019.6 1018.8 0.0
02/08:00am 6.1 2.4 -4.6 46 3.8 SE 6 6 3 3 1019.5 1018.7 0.0
02/07:30am 5.9 3.3 -4.8 46 3.7 CALM 0 0 0 0 1019.3 1018.5 0.0
02/07:00am 7.0 4.0 -5.0 42 4.3 NW 2 7 1 4 1019.1 1018.3 0.0
02/06:30am 8.0 5.5 -4.1 42 4.4 CALM 0 0 0 0 1018.6 1017.9 0.0
02/06:00am 9.5 6.6 -4.1 38 5.1 ESE 2 6 1 3 1018.4 1017.7 0.0
02/05:30am 11.6 8.5 -2.6 37 5.6 SSW 4 7 2 4 1018.4 1017.7 0.0
02/05:00am 13.0 9.0 -2.1 35 6.1 ESE 9 13 5 7 1018.3 1017.6 0.0
02/04:30am 12.7 9.1 -2.3 35 6.0 SE 7 11 4 6 1018.4 1017.7 0.0
02/04:00am 13.4 8.3 -1.7 35 6.2 ESE 15 20 8 11 1018.4 1017.7 0.0
02/03:30am 14.0 9.0 -1.2 35 6.3 ESE 15 20 8 11 1018.6 1017.9 0.0
02/03:00am 14.4 8.4 -1.6 33 6.7 ESE 20 26 11 14 1019.1 1018.3 0.0
02/02:30am 14.8 9.4 -1.3 33 6.8 ESE 17 22 9 12 1019.5 1018.7 0.0
02/02:00am 13.2 8.9 -4.9 28 6.9 SE 9 13 5 7 1020.0 1019.3 0.0
02/01:30am 13.3 8.5 -10.5 18 8.0 ESE 9 11 5 6 1020.3 1019.6 0.0
02/01:00am 14.7 10.1 -12.5 14 9.0 SSE 7 11 4 6 1020.5 1019.8 0.0
02/12:30am 15.3 9.6 -12.0 14 9.1 SSW 13 20 7 11 1020.5 1019.8 0.0
02/12:00am 12.1 7.5 -12.9 16 7.9 SE 7 9 4 5 1020.1 1019.4 0.0
 
Date/Time
CST
Temp
°C
App
Temp
°C
Dew
Point
°C
Rel
Hum
%
Delta-T
°C
Wind Press
QNH
hPa
Press
MSL
hPa
Rain since
9am
mm
Dir  Spd
km/h
Gust
km/h
Spd
kts
Gust
kts
01/11:30pm 13.0 8.6 -13.0 15 8.3 SE 6 7 3 4 1020.0 1019.3 0.0

Other formats

Comma delimited format used in spreadsheet applications
http://www.bom.gov.au/fwo/IDD60801/IDD60801.94457.axf

JavaScript Object Notation format (JSON) in row-major order
http://www.bom.gov.au/fwo/IDD60801/IDD60801.94457.json

Data quality

Most of these data are generated automatically and are frequently updated. Quality checks on data are not normally performed. It is possible for incorrect values to appear. Refer to information at About Latest Weather Observations and please check the disclaimer before using these data.